Terminal Aerodrome Forecast
Issued by NWS Wilmington, NC

Home | Current Version | Previous Version | Text Only | Print | Product List | Glossary On
Versions: 1 2 3 4 5 6 7 8 9 10 11 12 13 14 15 16
000
FTUS42 KILM 011700
TAFFLO
TAF
KFLO 011727Z 0118/0218 35006KT 3SM -RA BR OVC006
      TEMPO 0118/0121 2SM -RA OVC005
     FM020000 VRB03KT 3SM BR BKN004 OVC020
     FM021400 32007KT P6SM BKN015 OVC050=

USA.gov is the U.S. government's official web portal to all federal, state and local government web resources and services.